Terminal Aerodrome Forecast
Issued by NWS

Home | Current Version | Previous Version | Text Only | Print | Product List | Glossary On
Versions: 1 2 3 4 5 6 7 8 9 10 11 12 13
851
FTUS44 KJAN 211720
TAFGTR
TAF
KGTR 211720Z 2118/2218 14008KT P6SM SCT025 BKN040
     FM212100 13006KT P6SM VCTS BKN040CB BKN100
     FM220200 12004KT P6SM SCT100 BKN250
     FM220800 VRB03KT P6SM BKN012
     FM221100 13005KT 6SM BR OVC007
     FM221400 14004KT P6SM OVC015=

USA.gov is the U.S. government's official web portal to all federal, state and local government web resources and services.